Stations météo

réclame
Mon MeteoGroup
Isola Di Salina, Italie (16415): Température de l'air & dewpoint: 17.07.2018 07:00:00 - 23.07.2018 07:00:00 (CEST)Isola Di Salina, Italie (16415): Vitesse du vent: 17.07.2018 07:00:00 - 23.07.2018 07:00:00 (CEST)Isola Di Salina, Italie (16415): Direction du vent: 17.07.2018 07:00:00 - 23.07.2018 07:00:00 (CEST)Isola Di Salina, Italie (16415): reduced air pressure: 17.07.2018 07:00:00 - 23.07.2018 07:00:00 (CEST)Isola Di Salina, Italie (16415): Quantités de précipitations: 17.07.2018 07:00:00 - 23.07.2018 07:00:00 (CEST)
Date & Time tt [°C] td [°C] ff [km/h] ff [knt] dd ppp [hPa] rr [mm]
23.07.2018 07:00:00 24,0 23,8 11 6 SSE 1008,6 -
23.07.2018 06:00:00 24,1 23,7 4 2 N 1009,3 -
23.07.2018 05:00:00 24,2 23,6 8 4 NW 1010,0 -
23.07.2018 04:00:00 24,4 23,7 15 8 WNW 1010,9 -
23.07.2018 03:00:00 24,4 23,8 13 7 N 1010,8 -
23.07.2018 02:00:00 24,5 23,6 18 10 SSW 1011,3 0,0
23.07.2018 01:00:00 24,2 23,8 11 6 NW 1012,4 -
23.07.2018 00:00:00 24,3 23,7 2 1 W 1012,7 -
22.07.2018 23:00:00 24,3 23,6 4 2 S 1012,6 -
22.07.2018 22:00:00 23,9 23,0 8 4 W 1012,7 -
22.07.2018 21:00:00 24,2 22,9 8 4 WNW 1012,9 -
22.07.2018 20:00:00 24,6 23,7 15 8 WNW 1013,0 0,0
22.07.2018 19:00:00 25,4 24,3 9 5 NW 1012,2 -
22.07.2018 18:00:00 26,1 25,0 16 9 NNW 1012,7 -
22.07.2018 17:00:00 26,5 25,2 16 9 NW 1012,9 -
22.07.2018 16:00:00 26,2 24,9 16 9 NW 1013,5 -
22.07.2018 15:00:00 27,0 25,5 22 12 WNW 1013,1 -
22.07.2018 14:00:00 26,9 25,4 24 13 WNW 1012,9 0,0
22.07.2018 13:00:00 26,9 25,7 24 13 NW 1013,0 -
22.07.2018 12:00:00 28,2 25,2 16 9 NW 1013,2 -
22.07.2018 11:00:00 27,9 23,7 13 7 NW 1012,7 -
22.07.2018 10:00:00 27,6 26,2 5 3 SE 1012,5 -
22.07.2018 09:00:00 27,2 26,1 8 4 N 1012,5 -
22.07.2018 08:00:00 25,9 24,8 5 3 SE 1012,6 -
22.07.2018 07:00:00 24,4 23,3 8 4 NNW 1012,6 -
22.07.2018 06:00:00 25,4 23,8 8 4 N 1011,7 -
22.07.2018 05:00:00 25,7 24,1 28 15 WNW 1011,7 -
22.07.2018 04:00:00 26,7 22,1 22 12 WNW 1011,6 -
22.07.2018 03:00:00 27,2 20,0 11 6 S 1010,6 -
22.07.2018 02:00:00 27,2 18,2 5 3 S 1010,7 0,0
22.07.2018 01:00:00 27,5 17,0 8 4 NNW 1011,0 -
22.07.2018 00:00:00 27,1 19,1 5 3 SE 1011,3 -
21.07.2018 23:00:00 29,1 13,3 5 3 SW 1011,5 -
21.07.2018 22:00:00 26,3 17,3 4 2 W 1012,0 -
21.07.2018 21:00:00 26,1 20,6 4 2 S 1011,4 -
21.07.2018 20:00:00 26,3 22,3 11 6 S 1011,6 0,0
21.07.2018 19:00:00 26,8 21,3 13 7 SSE 1011,8 -
21.07.2018 18:00:00 27,5 20,0 16 9 S 1011,8 -
21.07.2018 17:00:00 28,4 16,3 15 8 S 1012,5 -
21.07.2018 16:00:00 27,9 21,4 15 8 SSE 1012,9 -
21.07.2018 15:00:00 28,4 23,0 15 8 SSE 1013,6 -
21.07.2018 14:00:00 27,3 22,2 18 10 S 1014,0 0,0
21.07.2018 13:00:00 27,4 21,4 18 10 SSE 1014,5 -
21.07.2018 12:00:00 27,2 22,8 21 11 SE 1014,7 -
21.07.2018 11:00:00 26,7 24,9 22 12 SSE 1014,4 -
21.07.2018 10:00:00 26,2 24,6 18 10 SSE 1014,5 -
21.07.2018 09:00:00 25,3 23,9 15 8 SE 1014,8 -
21.07.2018 08:00:00 24,1 23,5 13 7 SSE 1014,4 0,0
21.07.2018 07:00:00 21,9 21,0 0 0 N 1014,2 -
21.07.2018 06:00:00 21,2 20,0 0 0 N 1014,0 -
21.07.2018 05:00:00 21,4 20,3 4 2 S 1014,2 -
21.07.2018 04:00:00 22,1 21,4 8 4 S 1014,0 -
21.07.2018 03:00:00 21,9 20,7 5 3 S 1014,6 -
21.07.2018 02:00:00 22,3 21,4 5 3 S 1015,0 0,0
21.07.2018 01:00:00 22,5 21,6 8 4 S 1015,1 -
21.07.2018 00:00:00 22,6 21,5 4 2 S 1015,1 -
20.07.2018 23:00:00 22,7 21,5 2 1 WNW 1015,4 -
20.07.2018 22:00:00 23,0 21,2 4 2 SSW 1015,2 -
20.07.2018 21:00:00 23,5 21,7 4 2 WNW 1014,6 -
20.07.2018 20:00:00 24,6 23,0 4 2 NNW 1014,5 0,0
20.07.2018 19:00:00 25,5 23,7 5 3 NNW 1014,4 -
20.07.2018 18:00:00 26,1 24,3 13 7 NW 1014,9 -
20.07.2018 17:00:00 26,5 24,5 15 8 NNW 1015,1 -
20.07.2018 16:00:00 26,4 24,2 16 9 NNW 1015,1 -
20.07.2018 15:00:00 26,9 24,1 15 8 NNW 1015,4 -
20.07.2018 14:00:00 26,6 23,0 13 7 NNW 1015,3 0,0
20.07.2018 13:00:00 26,9 24,5 11 6 NNW 1015,6 -
20.07.2018 12:00:00 26,6 24,8 11 6 WNW 1015,5 -
20.07.2018 11:00:00 26,2 24,6 11 6 NW 1015,4 -
20.07.2018 10:00:00 25,7 24,2 9 5 NW 1015,3 -
20.07.2018 09:00:00 26,0 24,5 2 1 ESE 1015,1 -
20.07.2018 08:00:00 24,2 22,8 11 6 NW 1014,4 0,0
20.07.2018 07:00:00 22,5 21,1 2 1 N 1014,2 -
20.07.2018 06:00:00 22,0 20,6 2 1 NNE 1013,9 -
20.07.2018 05:00:00 21,6 14,7 4 2 WNW 1013,8 -
20.07.2018 04:00:00 21,4 18,5 2 1 WNW 1013,8 -
20.07.2018 03:00:00 22,2 17,7 4 2 NW 1014,2 -
20.07.2018 02:00:00 22,0 20,4 4 2 WNW 1014,5 0,0
20.07.2018 01:00:00 22,4 21,5 4 2 WNW 1014,8 -
20.07.2018 00:00:00 22,7 21,8 4 2 W 1014,6 -
19.07.2018 23:00:00 23,1 22,2 8 4 WNW 1014,7 -
19.07.2018 22:00:00 23,4 22,5 8 4 WNW 1014,5 -
19.07.2018 21:00:00 23,6 22,5 5 3 WNW 1013,9 -
19.07.2018 20:00:00 24,6 23,3 13 7 NW 1013,4 0,0
19.07.2018 19:00:00 25,4 24,0 16 9 NNW 1013,6 -
19.07.2018 18:00:00 26,3 22,1 11 6 NNW 1013,8 -
19.07.2018 17:00:00 27,0 22,1 4 2 E 1013,9 -
19.07.2018 16:00:00 26,6 23,8 9 5 SSE 1014,0 -
19.07.2018 15:00:00 27,0 25,2 11 6 SSE 1014,0 -
19.07.2018 14:00:00 26,4 24,6 11 6 SE 1014,5 0,0
19.07.2018 13:00:00 26,3 24,7 15 8 SE 1014,6 -
19.07.2018 12:00:00 26,4 24,8 15 8 SE 1014,6 -
19.07.2018 11:00:00 26,2 24,6 13 7 WNW 1014,8 -
19.07.2018 10:00:00 25,4 24,0 9 5 SSE 1015,0 -
19.07.2018 09:00:00 24,8 23,7 8 4 SSE 1015,1 -
19.07.2018 08:00:00 23,6 23,0 9 5 S 1014,9 0,0
19.07.2018 07:00:00 21,9 21,2 5 3 S 1014,7 -
19.07.2018 06:00:00 21,0 19,8 0 0 N 1014,7 -
19.07.2018 05:00:00 21,1 20,4 4 2 S 1014,5 -
19.07.2018 04:00:00 21,6 21,1 0 0 N 1014,9 -
19.07.2018 03:00:00 21,5 20,8 0 0 N 1015,2 -
19.07.2018 02:00:00 21,7 21,0 4 2 SW 1015,2 0,0
19.07.2018 01:00:00 22,0 21,3 4 2 W 1015,3 -
19.07.2018 00:00:00 22,6 21,7 4 2 W 1015,4 -
18.07.2018 23:00:00 22,8 21,7 9 5 W 1015,5 -
18.07.2018 22:00:00 23,1 22,2 11 6 W 1015,5 -
18.07.2018 21:00:00 23,4 22,3 13 7 W 1014,8 -
18.07.2018 20:00:00 24,1 23,0 13 7 WNW 1014,4 0,0
18.07.2018 19:00:00 24,9 23,5 18 10 NW 1014,4 -
18.07.2018 18:00:00 25,6 24,0 21 11 NW 1014,4 -
18.07.2018 17:00:00 25,9 24,3 21 11 NW 1014,7 -
18.07.2018 16:00:00 26,3 24,5 21 11 NW 1015,0 -
18.07.2018 15:00:00 26,3 24,5 24 13 NW 1015,1 -
18.07.2018 14:00:00 26,5 24,7 22 12 NW 1015,1 0,0
18.07.2018 13:00:00 26,3 24,5 24 13 NW 1015,1 -
18.07.2018 12:00:00 26,0 24,2 24 13 NW 1015,1 -
18.07.2018 11:00:00 25,6 24,0 22 12 NW 1014,9 -
18.07.2018 10:00:00 25,3 23,9 21 11 NW 1014,7 -
18.07.2018 09:00:00 24,4 23,0 18 10 NW 1014,6 -
18.07.2018 08:00:00 23,7 22,6 16 9 NW 1014,2 0,0
18.07.2018 07:00:00 22,9 21,8 15 8 WNW 1014,2 -
18.07.2018 06:00:00 22,3 21,2 15 8 WNW 1013,9 -
18.07.2018 05:00:00 22,3 21,1 13 7 W 1013,8 -
18.07.2018 04:00:00 22,5 21,4 16 9 WNW 1013,7 -
18.07.2018 03:00:00 22,4 21,2 13 7 WNW 1013,9 -
18.07.2018 02:00:00 22,7 21,5 13 7 WNW 1014,0 0,0
18.07.2018 01:00:00 23,1 21,8 21 11 NW 1014,1 -
18.07.2018 00:00:00 23,2 21,8 22 12 WNW 1014,2 -
17.07.2018 23:00:00 23,3 21,9 18 10 WNW 1014,1 -
17.07.2018 22:00:00 23,4 22,0 21 11 WNW 1013,9 -
17.07.2018 21:00:00 23,6 22,2 22 12 WNW 1012,9 -
17.07.2018 20:00:00 24,0 22,4 28 15 WNW 1012,4 0,0
17.07.2018 19:00:00 24,4 22,6 31 17 NW 1012,2 -
17.07.2018 18:00:00 24,7 22,3 35 19 NW 1012,3 -
17.07.2018 17:00:00 25,0 22,6 34 18 WNW 1012,4 -
17.07.2018 16:00:00 25,3 22,1 35 19 NW 1012,1 -
17.07.2018 15:00:00 25,9 21,7 34 18 WNW 1011,8 -
17.07.2018 14:00:00 25,9 21,3 34 18 WNW 1012,0 0,0
17.07.2018 13:00:00 26,4 21,8 31 17 WNW 1012,1 -
17.07.2018 12:00:00 26,4 23,6 29 16 WNW 1012,0 -
17.07.2018 11:00:00 25,4 22,0 35 19 WNW 1011,3 -
17.07.2018 10:00:00 26,2 22,4 22 12 WNW 1011,4 -
17.07.2018 09:00:00 25,6 23,4 28 15 WNW 1011,4 -
17.07.2018 08:00:00 25,7 23,3 21 11 W 1011,8 0,0
17.07.2018 07:00:00 25,0 23,2 26 14 W 1011,3 -

tt = Température de l'air
td = dewpoint
ff = Vitesse du vent
dd = Direction du vent
ppp = reduced air pressure
rr = Quantités de précipitations

stations d'obs. à proximité